Time;durP1;ratioP1;P1;durP2;ratioP2;P2;SDS_P1;SDS_P2;PMS_P1;PMS_P2;Temp;Humidity;BMP_temperature;BMP_pressure;BME280_temperature;BME280_humidity;BME280_pressure;Samples;Min_cycle;Max_cycle;Signal;HPM_P1;HPM_P2
2022/07/10 00:00:09;;;;;;;;;;;21.20;74.60;;;;;;5033860;28;910;-67
2022/07/10 00:02:35;;;;;;;;;;;21.20;74.60;;;;;;5015899;28;1159;-67
2022/07/10 00:05:00;;;;;;;;;;;21.20;74.50;;;;;;5015822;28;907;-67
2022/07/10 00:07:26;;;;;;;;;;;21.20;74.60;;;;;;5016041;28;800;-67
2022/07/10 00:09:51;;;;;;;;;;;21.20;74.60;;;;;;5033575;28;1898;-67
2022/07/10 00:12:17;;;;;;;;;;;21.20;74.50;;;;;;5033125;28;1192;-67
2022/07/10 00:14:42;;;;;;;;;;;21.20;74.60;;;;;;5032525;28;966;-67
2022/07/10 00:17:08;;;;;;;;;;;21.20;74.60;;;;;;5032529;28;1186;-68
2022/07/10 00:19:33;;;;;;;;;;;21.20;74.60;;;;;;5032517;28;1059;-67
2022/07/10 00:21:58;;;;;;;;;;;21.20;74.60;;;;;;5032780;28;1185;-67
2022/07/10 00:24:24;;;;;;;;;;;21.20;74.60;;;;;;5032339;28;847;-67
2022/07/10 00:26:49;;;;;;;;;;;21.20;74.60;;;;;;5014996;28;1257;-67
2022/07/10 00:29:15;;;;;;;;;;;21.20;74.60;;;;;;5032564;28;915;-67
2022/07/10 00:31:41;;;;;;;;;;;21.20;74.60;;;;;;5032456;28;1914;-68
2022/07/10 00:34:06;;;;;;;;;;;21.20;74.60;;;;;;5032177;28;785;-69
2022/07/10 00:36:32;;;;;;;;;;;21.20;74.60;;;;;;5032566;28;934;-68
2022/07/10 00:38:57;;;;;;;;;;;21.20;74.60;;;;;;5014876;28;876;-68
2022/07/10 00:41:23;;;;;;;;;;;21.20;74.60;;;;;;5014838;28;1285;-68
2022/07/10 00:43:52;;;;;;;;;;;21.20;74.60;;;;;;5014554;28;775;-68
2022/07/10 00:46:20;;;;;;;;;;;21.20;74.60;;;;;;5032347;28;836;-68
2022/07/10 00:48:46;;;;;;;;;;;21.20;74.60;;;;;;4998746;28;1082;-66
2022/07/10 00:51:11;;;;;;;;;;;21.20;74.60;;;;;;5031179;28;1960;-67
2022/07/10 00:53:36;;;;;;;;;;;21.20;74.60;;;;;;5014787;28;860;-66
2022/07/10 00:56:02;;;;;;;;;;;21.20;74.60;;;;;;5014483;28;899;-66
2022/07/10 00:58:27;;;;;;;;;;;21.20;74.60;;;;;;5032246;28;1045;-66
2022/07/10 01:00:53;;;;;;;;;;;21.20;74.60;;;;;;5031999;28;1294;-67
2022/07/10 01:03:18;;;;;;;;;;;21.20;74.60;;;;;;5014574;28;800;-66
2022/07/10 01:05:44;;;;;;;;;;;21.20;74.60;;;;;;5031879;28;792;-68
2022/07/10 01:08:09;;;;;;;;;;;21.20;74.60;;;;;;5014613;28;863;-68
2022/07/10 01:10:34;;;;;;;;;;;21.20;74.60;;;;;;4995259;28;1044903;-70
2022/07/10 01:13:00;;;;;;;;;;;21.20;74.70;;;;;;5033654;28;894;-69
2022/07/10 01:15:26;;;;;;;;;;;21.20;74.60;;;;;;5014694;28;1549;-69
2022/07/10 01:17:53;;;;;;;;;;;21.20;75.30;;;;;;5032824;28;851;-69
2022/07/10 01:20:18;;;;;;;;;;;21.20;74.60;;;;;;5032610;28;1213;-69
2022/07/10 01:22:44;;;;;;;;;;;21.20;74.60;;;;;;5032799;28;791;-69
2022/07/10 01:25:11;;;;;;;;;;;21.20;74.60;;;;;;5032405;28;1190;-67
2022/07/10 01:27:36;;;;;;;;;;;21.20;74.60;;;;;;5032742;28;863;-67
2022/07/10 01:30:02;;;;;;;;;;;21.20;74.60;;;;;;5032645;28;1971;-67
2022/07/10 01:32:35;;;;;;;;;;;21.20;74.60;;;;;;5032491;28;1356;-68
2022/07/10 01:35:01;;;;;;;;;;;21.20;74.60;;;;;;5032539;28;1018;-68
2022/07/10 01:37:26;;;;;;;;;;;21.20;74.60;;;;;;4998790;28;1034;-67
2022/07/10 01:39:52;;;;;;;;;;;21.20;74.60;;;;;;5032519;28;851;-68
2022/07/10 01:42:17;;;;;;;;;;;21.20;74.60;;;;;;5014820;28;1288;-68
2022/07/10 01:44:42;;;;;;;;;;;21.20;74.60;;;;;;5031997;28;816;-67
2022/07/10 01:47:08;;;;;;;;;;;21.20;74.60;;;;;;5032419;28;1358;-67
2022/07/10 01:49:34;;;;;;;;;;;21.20;74.60;;;;;;5032534;28;919;-67
2022/07/10 01:51:59;;;;;;;;;;;21.20;74.60;;;;;;5032452;28;1902;-67
2022/07/10 01:54:25;;;;;;;;;;;21.20;74.60;;;;;;5032156;28;875;-67
2022/07/10 01:56:50;;;;;;;;;;;21.20;74.60;;;;;;5032489;28;1082;-67
2022/07/10 01:59:16;;;;;;;;;;;21.20;74.60;;;;;;5032211;28;986;-67
2022/07/10 02:01:41;;;;;;;;;;;21.20;74.60;;;;;;5032258;28;1205;-67
2022/07/10 02:06:50;;;;;;;;;;;21.20;74.60;;;;;;5036145;28;674;-67
2022/07/10 02:09:16;;;;;;;;;;;21.20;74.50;;;;;;5035642;28;1295;-66
2022/07/10 02:11:41;;;;;;;;;;;21.20;74.60;;;;;;5035081;28;1973;-65
2022/07/10 02:14:08;;;;;;;;;;;21.20;74.60;;;;;;5035016;28;1163;-68
2022/07/10 02:16:34;;;;;;;;;;;21.20;75.10;;;;;;5035623;28;1255;-67
2022/07/10 02:18:59;;;;;;;;;;;21.20;74.60;;;;;;5017953;28;1264;-67
2022/07/10 02:21:25;;;;;;;;;;;21.20;74.60;;;;;;5035764;28;1314;-66
2022/07/10 02:23:50;;;;;;;;;;;21.20;74.60;;;;;;5035363;28;930;-65
2022/07/10 02:26:15;;;;;;;;;;;21.20;74.60;;;;;;5028463;28;1116;-67
2022/07/10 02:28:41;;;;;;;;;;;21.20;74.50;;;;;;5035431;28;879;-67
2022/07/10 02:31:06;;;;;;;;;;;21.20;74.60;;;;;;5034520;28;1930;-68
2022/07/10 02:33:32;;;;;;;;;;;21.20;74.60;;;;;;5035453;28;804;-67
2022/07/10 02:35:57;;;;;;;;;;;21.20;74.70;;;;;;5035262;28;863;-67
2022/07/10 02:38:23;;;;;;;;;;;21.20;74.60;;;;;;5035535;28;883;-67
2022/07/10 02:40:48;;;;;;;;;;;21.20;74.60;;;;;;5035248;28;1258;-67
2022/07/10 02:43:14;;;;;;;;;;;21.20;74.60;;;;;;5034943;28;803;-67
2022/07/10 02:45:39;;;;;;;;;;;21.20;74.60;;;;;;5034937;28;863;-67
2022/07/10 02:48:05;;;;;;;;;;;21.20;74.60;;;;;;5017655;28;866;-68
2022/07/10 02:50:30;;;;;;;;;;;21.20;74.60;;;;;;5035140;28;1894;-67
2022/07/10 02:52:55;;;;;;;;;;;21.20;74.60;;;;;;5035344;28;866;-68
2022/07/10 02:55:21;;;;;;;;;;;21.20;74.70;;;;;;5034857;28;789;-68
2022/07/10 02:57:46;;;;;;;;;;;21.10;74.50;;;;;;5017294;28;839;-68
2022/07/10 03:00:12;;;;;;;;;;;21.20;74.60;;;;;;5035057;28;891;-67
2022/07/10 03:02:37;;;;;;;;;;;21.20;74.60;;;;;;5035285;28;1362;-67
2022/07/10 03:05:03;;;;;;;;;;;21.20;74.60;;;;;;5034753;28;915;-67
2022/07/10 03:07:28;;;;;;;;;;;21.20;74.60;;;;;;5017750;28;1344;-67
2022/07/10 03:09:54;;;;;;;;;;;21.20;74.60;;;;;;5035132;28;1958;-68
2022/07/10 03:12:19;;;;;;;;;;;21.20;74.60;;;;;;5034453;28;1204;-67
2022/07/10 03:14:45;;;;;;;;;;;21.20;74.60;;;;;;5033615;28;910;-68
2022/07/10 03:17:10;;;;;;;;;;;21.20;74.60;;;;;;5034688;28;1250;-68
2022/07/10 03:19:36;;;;;;;;;;;21.20;74.60;;;;;;5034610;28;1124;-67
2022/07/10 03:22:01;;;;;;;;;;;21.20;74.60;;;;;;5034583;28;1181;-67
2022/07/10 03:24:26;;;;;;;;;;;21.20;74.60;;;;;;5034650;28;781;-67
2022/07/10 03:26:52;;;;;;;;;;;21.20;74.60;;;;;;5034291;28;1175;-67
2022/07/10 03:29:17;;;;;;;;;;;21.20;74.60;;;;;;5034455;28;683;-67
2022/07/10 03:31:43;;;;;;;;;;;21.20;74.60;;;;;;5034772;28;1969;-67
2022/07/10 03:34:09;;;;;;;;;;;21.20;74.60;;;;;;5034213;28;804;-67
2022/07/10 03:36:35;;;;;;;;;;;21.20;74.50;;;;;;5034425;28;1019;-67
2022/07/10 03:39:00;;;;;;;;;;;21.10;74.50;;;;;;5016548;28;812;-67
2022/07/10 03:41:26;;;;;;;;;;;21.20;74.60;;;;;;5016332;28;1185;-68
2022/07/10 03:43:51;;;;;;;;;;;21.20;74.60;;;;;;5033989;28;891;-67
2022/07/10 03:46:17;;;;;;;;;;;21.20;74.60;;;;;;5034460;28;1059;-67
2022/07/10 03:48:42;;;;;;;;;;;21.20;74.60;;;;;;5034198;28;891;-67
2022/07/10 03:51:07;;;;;;;;;;;21.20;74.60;;;;;;5033936;28;1946;-67
2022/07/10 03:53:33;;;;;;;;;;;21.10;74.50;;;;;;5034188;28;816;-68
2022/07/10 03:56:00;;;;;;;;;;;21.10;74.50;;;;;;5015969;28;860;-67
2022/07/10 03:58:25;;;;;;;;;;;21.20;74.60;;;;;;5034171;28;864;-67
2022/07/10 04:00:51;;;;;;;;;;;21.10;74.50;;;;;;5016410;28;1305;-67
2022/07/10 04:03:16;;;;;;;;;;;21.20;74.60;;;;;;5016224;28;900;-67
2022/07/10 04:05:42;;;;;;;;;;;21.20;74.60;;;;;;5033671;28;808;-67
2022/07/10 04:08:08;;;;;;;;;;;21.20;74.60;;;;;;5033671;28;824;-67
2022/07/10 04:10:34;;;;;;;;;;;21.20;74.60;;;;;;5033358;28;1902;-67
2022/07/10 04:12:59;;;;;;;;;;;21.10;74.50;;;;;;5034116;28;959;-67
2022/07/10 04:15:25;;;;;;;;;;;21.10;74.50;;;;;;5015940;28;1253;-67
2022/07/10 04:17:50;;;;;;;;;;;21.20;74.60;;;;;;5016017;28;954;-67
2022/07/10 04:20:16;;;;;;;;;;;21.20;74.60;;;;;;5033424;28;1219;-67
2022/07/10 04:22:41;;;;;;;;;;;21.20;74.60;;;;;;5016009;28;813;-67
2022/07/10 04:25:07;;;;;;;;;;;21.10;74.50;;;;;;5015817;28;1207;-67
2022/07/10 04:27:33;;;;;;;;;;;21.10;74.50;;;;;;4999690;28;1314;-67
2022/07/10 04:29:58;;;;;;;;;;;21.10;74.60;;;;;;5033310;28;1970;-67
2022/07/10 04:32:23;;;;;;;;;;;21.20;74.60;;;;;;5015894;28;1378;-66
2022/07/10 04:34:49;;;;;;;;;;;21.20;74.60;;;;;;5033096;28;804;-67
2022/07/10 04:37:14;;;;;;;;;;;21.10;74.50;;;;;;5033359;28;899;-67
2022/07/10 04:39:40;;;;;;;;;;;21.20;74.50;;;;;;5033080;28;835;-67
2022/07/10 04:42:06;;;;;;;;;;;21.20;74.50;;;;;;5033366;28;1306;-67
2022/07/10 04:44:32;;;;;;;;;;;21.20;74.60;;;;;;5033042;28;1060;-68
2022/07/10 04:46:58;;;;;;;;;;;21.10;74.50;;;;;;5033293;28;857;-67
2022/07/10 04:49:23;;;;;;;;;;;21.20;74.60;;;;;;5015508;28;883;-68
2022/07/10 04:51:49;;;;;;;;;;;21.10;74.50;;;;;;5015306;28;1963;-67
2022/07/10 04:54:14;;;;;;;;;;;21.20;74.60;;;;;;5032684;28;986;-67
2022/07/10 04:56:40;;;;;;;;;;;21.20;74.60;;;;;;5033101;28;849;-67
2022/07/10 04:59:05;;;;;;;;;;;21.10;74.50;;;;;;5015475;28;883;-67
2022/07/10 05:01:31;;;;;;;;;;;21.10;74.50;;;;;;5015575;28;1208;-68
2022/07/10 05:03:57;;;;;;;;;;;21.20;74.50;;;;;;5032915;28;835;-67
2022/07/10 05:06:22;;;;;;;;;;;21.10;74.50;;;;;;5033228;28;799;-67
2022/07/10 05:08:48;;;;;;;;;;;21.20;74.50;;;;;;5032918;28;950;-67
2022/07/10 05:11:13;;;;;;;;;;;21.10;74.50;;;;;;5032697;28;1898;-67
2022/07/10 05:13:39;;;;;;;;;;;21.10;74.50;;;;;;4998867;28;1497;-67
2022/07/10 05:16:05;;;;;;;;;;;21.20;74.50;;;;;;5032906;28;1305;-68
2022/07/10 05:18:30;;;;;;;;;;;21.10;74.50;;;;;;5032953;28;1115;-67
2022/07/10 05:20:56;;;;;;;;;;;21.10;74.50;;;;;;5015191;28;1218;-67
2022/07/10 05:23:21;;;;;;;;;;;21.10;74.50;;;;;;5032746;28;915;-67
2022/07/10 05:25:47;;;;;;;;;;;21.10;74.50;;;;;;5014854;28;1219;-67
2022/07/10 05:28:15;;;;;;;;;;;21.10;74.50;;;;;;5032718;28;947;-67
2022/07/10 05:30:41;;;;;;;;;;;21.10;74.50;;;;;;5015419;28;1927;-67
2022/07/10 05:33:06;;;;;;;;;;;21.10;74.50;;;;;;5015279;28;840;-67
2022/07/10 05:35:32;;;;;;;;;;;21.20;74.50;;;;;;5014662;28;1695;-67
2022/07/10 05:37:57;;;;;;;;;;;21.20;74.60;;;;;;5034219;28;1055;-67
2022/07/10 05:40:22;;;;;;;;;;;21.10;74.50;;;;;;5036514;28;1291;-67
2022/07/10 05:42:48;;;;;;;;;;;21.20;74.50;;;;;;5036533;28;887;-67
2022/07/10 05:45:13;;;;;;;;;;;21.10;74.50;;;;;;5018549;28;808;-67
2022/07/10 05:47:39;;;;;;;;;;;21.10;74.50;;;;;;5036378;28;847;-67
2022/07/10 05:50:05;;;;;;;;;;;21.20;74.50;;;;;;5036251;28;1953;-67
2022/07/10 05:52:30;;;;;;;;;;;21.10;74.50;;;;;;5018797;28;1202;-67
2022/07/10 05:54:56;;;;;;;;;;;21.20;74.50;;;;;;5036103;28;792;-67
2022/07/10 05:57:22;;;;;;;;;;;21.20;74.50;;;;;;5036398;28;836;-67
2022/07/10 05:59:47;;;;;;;;;;;21.10;74.50;;;;;;5036355;28;883;-67
2022/07/10 06:02:13;;;;;;;;;;;21.10;74.50;;;;;;5018429;28;1359;-67
2022/07/10 06:04:39;;;;;;;;;;;21.10;74.50;;;;;;5035932;28;820;-67
2022/07/10 06:07:04;;;;;;;;;;;21.10;74.50;;;;;;5036176;28;871;-67
2022/07/10 06:09:29;;;;;;;;;;;21.20;74.60;;;;;;5035933;28;899;-67
2022/07/10 06:11:55;;;;;;;;;;;21.10;74.60;;;;;;5035693;28;1956;-67
2022/07/10 06:14:20;;;;;;;;;;;21.10;74.50;;;;;;5017982;28;1303;-67
2022/07/10 06:16:46;;;;;;;;;;;21.20;74.50;;;;;;5035951;28;1246;-67
2022/07/10 06:19:12;;;;;;;;;;;21.10;74.50;;;;;;5035800;28;1115;-67
2022/07/10 06:21:37;;;;;;;;;;;21.20;74.60;;;;;;5035750;28;1209;-68
2022/07/10 06:24:03;;;;;;;;;;;21.10;74.50;;;;;;5017696;28;1318;-68
2022/07/10 06:26:28;;;;;;;;;;;21.10;74.50;;;;;;5035965;28;1132;-68
2022/07/10 06:28:54;;;;;;;;;;;21.10;74.50;;;;;;5017991;28;1402;-68
2022/07/10 06:31:19;;;;;;;;;;;21.10;74.50;;;;;;5035529;28;1910;-68
2022/07/10 06:33:45;;;;;;;;;;;21.10;74.50;;;;;;5035605;28;796;-68
2022/07/10 06:36:12;;;;;;;;;;;21.20;74.60;;;;;;5035484;28;871;-68
2022/07/10 06:38:37;;;;;;;;;;;21.10;74.50;;;;;;5035358;28;761;-68
2022/07/10 06:41:03;;;;;;;;;;;21.10;74.50;;;;;;5035401;28;1202;-68
2022/07/10 06:43:28;;;;;;;;;;;21.20;74.60;;;;;;5035518;28;815;-68
2022/07/10 06:45:54;;;;;;;;;;;21.10;74.60;;;;;;5035270;28;948;-68
2022/07/10 06:48:20;;;;;;;;;;;21.10;74.60;;;;;;5017326;28;962;-68
2022/07/10 06:50:45;;;;;;;;;;;21.10;74.50;;;;;;5016603;28;1902;-68
2022/07/10 06:53:11;;;;;;;;;;;21.10;74.50;;;;;;5035096;28;961;-68
2022/07/10 06:55:36;;;;;;;;;;;21.10;74.50;;;;;;5017334;28;844;-68
2022/07/10 06:58:02;;;;;;;;;;;21.10;74.60;;;;;;5017385;28;1332;-68
2022/07/10 07:00:27;;;;;;;;;;;21.20;74.60;;;;;;5035388;28;1208;-68
2022/07/10 07:02:53;;;;;;;;;;;21.20;74.60;;;;;;5035258;28;974;-68
2022/07/10 07:05:18;;;;;;;;;;;21.20;74.60;;;;;;5034785;28;883;-67
2022/07/10 07:07:43;;;;;;;;;;;21.10;74.50;;;;;;5035481;28;938;-67
2022/07/10 07:10:09;;;;;;;;;;;21.10;74.50;;;;;;5035032;28;1895;-67
2022/07/10 07:12:34;;;;;;;;;;;21.10;74.50;;;;;;5017558;28;1188;-67
2022/07/10 07:15:00;;;;;;;;;;;21.20;74.60;;;;;;5035261;28;1143;-67
2022/07/10 07:17:33;;;;;;;;;;;21.20;74.60;;;;;;5017794;28;866;-67
2022/07/10 07:25:27;;;;;;;;;;;21.20;74.50;;;;;;5054831;22;1970;-72
2022/07/10 07:27:53;;;;;;;;;;;21.10;74.50;;;;;;5034255;28;818;-72
2022/07/10 07:30:18;;;;;;;;;;;21.10;74.50;;;;;;5034350;28;1957;-71
2022/07/10 07:32:44;;;;;;;;;;;21.20;74.50;;;;;;5034424;28;799;-71
2022/07/10 07:35:10;;;;;;;;;;;21.10;74.60;;;;;;5028728;28;1196;-71
2022/07/10 07:37:42;;;;;;;;;;;21.20;74.60;;;;;;5013637;28;787;-71
2022/07/10 07:40:09;;;;;;;;;;;21.10;74.60;;;;;;5014491;28;799;-71
2022/07/10 07:42:34;;;;;;;;;;;21.20;74.60;;;;;;5013385;28;844;-72
2022/07/10 07:45:00;;;;;;;;;;;21.10;74.50;;;;;;5014145;28;1284;-72
2022/07/10 07:47:25;;;;;;;;;;;21.10;74.50;;;;;;5014293;28;895;-71
2022/07/10 07:49:51;;;;;;;;;;;21.10;74.50;;;;;;5013163;28;973;-71
2022/07/10 07:52:16;;;;;;;;;;;21.10;74.60;;;;;;5013171;28;1950;-71
2022/07/10 07:54:42;;;;;;;;;;;21.10;74.50;;;;;;5012858;28;1267;-72
2022/07/10 07:57:07;;;;;;;;;;;21.10;74.60;;;;;;5014266;28;891;-72
2022/07/10 07:59:33;;;;;;;;;;;21.20;74.60;;;;;;5014693;28;787;-72
2022/07/10 08:01:58;;;;;;;;;;;21.20;74.60;;;;;;5012539;28;1026;-71
2022/07/10 08:04:23;;;;;;;;;;;21.10;74.60;;;;;;5013741;28;867;-71
2022/07/10 08:06:51;;;;;;;;;;;21.10;74.60;;;;;;5012868;28;1235;-73
2022/07/10 08:09:20;;;;;;;;;;;21.10;74.60;;;;;;5012858;28;839;-73
2022/07/10 08:11:46;;;;;;;;;;;21.10;74.60;;;;;;5012740;28;1898;-72
2022/07/10 08:14:11;;;;;;;;;;;21.10;74.60;;;;;;5013798;28;807;-72
2022/07/10 08:16:37;;;;;;;;;;;21.20;74.60;;;;;;5013824;28;1218;-72
2022/07/10 08:19:02;;;;;;;;;;;21.10;74.60;;;;;;5008355;28;1139;-71
2022/07/10 08:21:28;;;;;;;;;;;21.10;74.60;;;;;;4993026;28;958;-72
2022/07/10 08:23:53;;;;;;;;;;;21.10;74.60;;;;;;4994315;28;867;-72
2022/07/10 08:26:19;;;;;;;;;;;21.10;74.60;;;;;;5007174;28;1208;-71
2022/07/10 08:28:44;;;;;;;;;;;21.20;74.60;;;;;;5012641;28;879;-73
2022/07/10 08:31:10;;;;;;;;;;;21.10;74.70;;;;;;5012465;28;1961;-73
2022/07/10 08:33:35;;;;;;;;;;;21.10;74.60;;;;;;5013272;28;816;-72
2022/07/10 08:36:01;;;;;;;;;;;21.10;74.60;;;;;;5013317;28;1281;-71
2022/07/10 08:38:26;;;;;;;;;;;21.10;74.60;;;;;;5013537;28;796;-72
2022/07/10 08:40:53;;;;;;;;;;;21.20;74.70;;;;;;5013493;28;922;-71
2022/07/10 08:43:18;;;;;;;;;;;21.20;74.60;;;;;;5013506;28;827;-72
2022/07/10 08:45:44;;;;;;;;;;;21.20;74.60;;;;;;5013065;28;1265;-72
2022/07/10 08:48:09;;;;;;;;;;;21.10;74.60;;;;;;5012244;28;799;-72
2022/07/10 08:50:37;;;;;;;;;;;21.10;74.60;;;;;;5012004;28;1891;-72
2022/07/10 08:53:09;;;;;;;;;;;21.10;74.60;;;;;;5012121;28;955;-72
2022/07/10 08:55:35;;;;;;;;;;;21.10;74.60;;;;;;5011835;28;1215;-72
2022/07/10 08:58:00;;;;;;;;;;;21.10;74.60;;;;;;5013372;28;977;-72
2022/07/10 09:00:26;;;;;;;;;;;21.10;74.60;;;;;;5012057;28;832;-72
2022/07/10 09:02:53;;;;;;;;;;;21.10;74.60;;;;;;5013132;28;883;-72
2022/07/10 09:05:19;;;;;;;;;;;21.10;74.60;;;;;;5011570;28;1281;-72
2022/07/10 09:07:45;;;;;;;;;;;21.10;74.60;;;;;;5013260;28;843;-72
2022/07/10 09:10:10;;;;;;;;;;;21.10;74.60;;;;;;5011834;28;1890;-72
2022/07/10 09:12:55;;;;;;;;;;;21.10;74.60;;;;;;5014061;28;891;-72
2022/07/10 09:15:24;;;;;;;;;;;21.10;74.60;;;;;;5016873;28;1196;-72
2022/07/10 09:17:54;;;;;;;;;;;21.10;74.60;;;;;;5016078;28;792;-72
2022/07/10 09:20:46;;;;;;;;;;;21.10;74.60;;;;;;5000019;28;1146;-72
2022/07/10 09:23:17;;;;;;;;;;;21.10;74.60;;;;;;4996282;28;1195;-72
2022/07/10 09:25:43;;;;;;;;;;;21.10;74.60;;;;;;5005252;28;1218;-72
2022/07/10 09:28:08;;;;;;;;;;;21.10;74.60;;;;;;5016206;28;866;-72
2022/07/10 09:30:35;;;;;;;;;;;21.10;74.60;;;;;;5016836;28;1902;-72
2022/07/10 09:33:17;;;;;;;;;;;21.10;74.60;;;;;;5015809;28;903;-72
2022/07/10 09:36:04;;;;;;;;;;;21.10;74.60;;;;;;5015254;28;1299;-72
2022/07/10 09:38:39;;;;;;;;;;;21.10;74.60;;;;;;5016853;28;867;-72
2022/07/10 09:41:11;;;;;;;;;;;21.10;74.60;;;;;;5016762;28;902;-72
2022/07/10 09:43:46;;;;;;;;;;;21.10;74.60;;;;;;5015557;28;807;-72
2022/07/10 09:46:11;;;;;;;;;;;21.10;74.60;;;;;;5016525;28;1207;-72
2022/07/10 09:48:36;;;;;;;;;;;21.10;74.60;;;;;;5016574;28;1022;-72
2022/07/10 09:51:02;;;;;;;;;;;21.10;74.60;;;;;;5015492;28;2250;-72
2022/07/10 09:53:28;;;;;;;;;;;21.10;74.60;;;;;;5016537;28;874;-72
2022/07/10 09:55:53;;;;;;;;;;;21.10;74.60;;;;;;5015154;28;1196;-72
2022/07/10 09:58:19;;;;;;;;;;;21.10;74.60;;;;;;5015364;28;1057;-72
2022/07/10 10:00:47;;;;;;;;;;;21.10;74.60;;;;;;5015034;28;1455;-72
2022/07/10 10:03:13;;;;;;;;;;;21.10;74.60;;;;;;5016391;28;902;-72
2022/07/10 10:05:55;;;;;;;;;;;21.10;74.60;;;;;;5014841;28;1237;-72
2022/07/10 10:08:37;;;;;;;;;;;21.10;74.60;;;;;;5015191;28;934;-72
2022/07/10 10:11:03;;;;;;;;;;;21.10;74.70;;;;;;4998570;28;1898;-72
2022/07/10 10:13:28;;;;;;;;;;;21.10;74.60;;;;;;5014986;28;903;-71
2022/07/10 10:15:54;;;;;;;;;;;21.10;74.60;;;;;;5014569;28;1290;-72
2022/07/10 10:18:20;;;;;;;;;;;21.10;74.60;;;;;;5014538;28;1186;-72
2022/07/10 10:20:47;;;;;;;;;;;21.10;74.60;;;;;;4996489;28;1146;-72
2022/07/10 10:23:13;;;;;;;;;;;21.10;74.60;;;;;;4996246;28;816;-72
2022/07/10 10:25:39;;;;;;;;;;;21.10;74.70;;;;;;5003453;28;1208;-72
2022/07/10 10:28:06;;;;;;;;;;;21.10;75.40;;;;;;5014904;28;709;-72
2022/07/10 10:30:31;;;;;;;;;;;21.10;74.60;;;;;;5014637;28;1902;-72
2022/07/10 10:32:57;;;;;;;;;;;21.10;74.60;;;;;;5014724;28;969;-72
2022/07/10 10:35:41;;;;;;;;;;;21.10;74.60;;;;;;5015544;28;1318;-72
2022/07/10 10:38:06;;;;;;;;;;;21.10;74.60;;;;;;5016234;28;954;-73
2022/07/10 10:40:32;;;;;;;;;;;21.10;74.60;;;;;;5014524;28;1037;-72
2022/07/10 10:43:19;;;;;;;;;;;21.10;74.60;;;;;;5014640;28;823;-72
2022/07/10 10:45:48;;;;;;;;;;;21.10;74.70;;;;;;5015245;28;1200;-72
2022/07/10 10:48:14;;;;;;;;;;;21.10;74.60;;;;;;5014572;28;943;-72
2022/07/10 10:50:49;;;;;;;;;;;21.10;74.60;;;;;;5014050;28;1961;-73
2022/07/10 10:53:15;;;;;;;;;;;21.10;74.60;;;;;;5015609;28;891;-72
2022/07/10 10:56:01;;;;;;;;;;;21.10;74.60;;;;;;5015120;28;1279;-72
2022/07/10 10:58:27;;;;;;;;;;;21.10;74.60;;;;;;5011369;28;1419;-72
2022/07/10 11:01:02;;;;;;;;;;;21.10;74.70;;;;;;5015323;28;886;-72
2022/07/10 11:03:27;;;;;;;;;;;21.10;74.60;;;;;;5014150;28;1002;-72
2022/07/10 11:05:53;;;;;;;;;;;21.10;74.60;;;;;;5014885;28;1209;-72
2022/07/10 11:08:37;;;;;;;;;;;21.10;74.60;;;;;;5015222;28;832;-72
2022/07/10 11:11:22;;;;;;;;;;;21.10;74.70;;;;;;5015133;28;1962;-72
2022/07/10 11:13:48;;;;;;;;;;;21.10;74.60;;;;;;5015022;28;1045;-72
2022/07/10 11:16:13;;;;;;;;;;;21.10;74.60;;;;;;5013591;28;1249;-73
2022/07/10 11:18:39;;;;;;;;;;;21.10;74.60;;;;;;5012736;28;1111;-72
2022/07/10 11:21:04;;;;;;;;;;;21.10;74.60;;;;;;4995658;28;1057;-73
2022/07/10 11:23:36;;;;;;;;;;;21.10;74.60;;;;;;4994208;28;824;-74
2022/07/10 11:26:08;;;;;;;;;;;21.10;74.60;;;;;;5005574;28;1294;-72
2022/07/10 11:28:51;;;;;;;;;;;21.10;74.60;;;;;;5014862;28;811;-72
2022/07/10 11:31:20;;;;;;;;;;;21.10;74.60;;;;;;5013366;28;1902;-73
2022/07/10 11:33:50;;;;;;;;;;;21.10;74.60;;;;;;5013340;28;820;-73
2022/07/10 11:36:28;;;;;;;;;;;21.10;74.70;;;;;;5012620;28;1215;-73
2022/07/10 11:39:12;;;;;;;;;;;21.10;74.70;;;;;;5013562;28;878;-72
2022/07/10 11:41:47;;;;;;;;;;;21.10;74.70;;;;;;5013440;28;835;-73
2022/07/10 11:44:16;;;;;;;;;;;21.10;74.70;;;;;;5014327;28;826;-73
2022/07/10 11:46:44;;;;;;;;;;;21.10;74.60;;;;;;5013156;28;1245;-73
2022/07/10 11:49:10;;;;;;;;;;;21.10;74.70;;;;;;5013219;28;917;-73
2022/07/10 11:51:39;;;;;;;;;;;21.10;74.60;;;;;;5013239;28;1956;-74
2022/07/10 11:54:05;;;;;;;;;;;21.10;74.70;;;;;;5014112;28;847;-73
2022/07/10 11:56:34;;;;;;;;;;;21.10;74.70;;;;;;5013081;28;1205;-73
2022/07/10 11:59:06;;;;;;;;;;;21.10;74.70;;;;;;5014326;28;863;-73
2022/07/10 12:01:35;;;;;;;;;;;21.10;74.70;;;;;;5012879;28;848;-73
2022/07/10 12:04:04;;;;;;;;;;;21.10;74.70;;;;;;5012857;28;866;-72
2022/07/10 12:06:30;;;;;;;;;;;21.10;74.70;;;;;;5012885;28;1271;-73
2022/07/10 12:08:56;;;;;;;;;;;21.10;74.70;;;;;;5013406;28;862;-73
2022/07/10 12:11:21;;;;;;;;;;;21.10;74.70;;;;;;4996183;28;1894;-73
2022/07/10 12:13:47;;;;;;;;;;;21.10;74.70;;;;;;5013888;28;784;-73
2022/07/10 12:16:13;;;;;;;;;;;21.10;74.70;;;;;;5012632;28;1354;-73
2022/07/10 12:18:41;;;;;;;;;;;21.10;74.70;;;;;;5010523;28;1198;-73
2022/07/10 12:21:07;;;;;;;;;;;21.10;74.70;;;;;;4994259;28;888;-73
2022/07/10 12:23:34;;;;;;;;;;;21.10;74.70;;;;;;4993076;28;860;-73
2022/07/10 12:26:00;;;;;;;;;;;21.10;74.70;;;;;;5003272;28;1193;-73
2022/07/10 12:28:26;;;;;;;;;;;21.10;74.60;;;;;;5013677;28;867;-73
2022/07/10 12:30:51;;;;;;;;;;;21.10;74.70;;;;;;5012527;28;1977;-72
2022/07/10 12:33:20;;;;;;;;;;;21.10;74.70;;;;;;5012610;28;787;-73
2022/07/10 12:35:50;;;;;;;;;;;21.10;74.70;;;;;;5012174;28;1184;-73
2022/07/10 12:38:19;;;;;;;;;;;21.10;74.80;;;;;;5013702;28;868;-73
2022/07/10 12:40:44;;;;;;;;;;;21.10;74.70;;;;;;5013490;28;946;-73
2022/07/10 12:43:11;;;;;;;;;;;21.10;74.70;;;;;;5013400;28;906;-73
2022/07/10 12:45:37;;;;;;;;;;;21.10;74.70;;;;;;5013279;28;1208;-72
2022/07/10 12:48:05;;;;;;;;;;;21.10;74.70;;;;;;5012324;28;1037;-72
2022/07/10 12:50:31;;;;;;;;;;;21.10;74.70;;;;;;5012205;28;1969;-73
2022/07/10 12:53:13;;;;;;;;;;;21.10;74.70;;;;;;5012274;28;761;-74
2022/07/10 12:55:38;;;;;;;;;;;21.10;74.70;;;;;;5012857;28;1282;-72
2022/07/10 12:58:05;;;;;;;;;;;21.10;74.70;;;;;;5013413;28;804;-73
2022/07/10 13:00:33;;;;;;;;;;;21.10;74.70;;;;;;5013412;28;796;-73
2022/07/10 13:02:58;;;;;;;;;;;21.10;74.70;;;;;;5013432;28;824;-74
2022/07/10 13:05:36;;;;;;;;;;;21.10;74.70;;;;;;5013041;28;1193;-73
2022/07/10 13:08:10;;;;;;;;;;;21.10;74.70;;;;;;5013208;28;873;-73
2022/07/10 13:10:36;;;;;;;;;;;21.10;74.70;;;;;;5013375;28;1898;-73
2022/07/10 13:13:02;;;;;;;;;;;21.10;74.70;;;;;;5012012;28;910;-73
2022/07/10 13:15:29;;;;;;;;;;;21.10;74.70;;;;;;5012860;28;1212;-73
2022/07/10 13:17:55;;;;;;;;;;;21.10;74.70;;;;;;5012045;28;835;-73
2022/07/10 13:20:20;;;;;;;;;;;21.10;74.70;;;;;;4997222;28;1199;-73
2022/07/10 13:22:45;;;;;;;;;;;21.10;74.70;;;;;;4993667;28;715;-73
2022/07/10 13:25:11;;;;;;;;;;;21.10;74.70;;;;;;4997792;28;1194;-72
2022/07/10 13:27:37;;;;;;;;;;;21.10;74.70;;;;;;5013214;28;847;-72
2022/07/10 13:30:03;;;;;;;;;;;21.10;74.70;;;;;;5013058;28;978;-72
2022/07/10 13:32:28;;;;;;;;;;;21.10;74.70;;;;;;5013075;28;1902;-72
2022/07/10 13:34:54;;;;;;;;;;;21.10;74.70;;;;;;5012811;28;1202;-72
2022/07/10 13:37:19;;;;;;;;;;;21.10;74.70;;;;;;5012879;28;1084;-72
2022/07/10 13:39:45;;;;;;;;;;;21.10;74.70;;;;;;5012071;28;721;-72
2022/07/10 13:42:10;;;;;;;;;;;21.10;74.70;;;;;;5011880;28;903;-72
2022/07/10 13:44:36;;;;;;;;;;;21.10;74.70;;;;;;5012740;28;1223;-72
2022/07/10 13:47:01;;;;;;;;;;;21.10;74.70;;;;;;5012894;28;927;-72
2022/07/10 13:49:27;;;;;;;;;;;21.10;74.70;;;;;;5011531;28;1093;-72
2022/07/10 13:51:52;;;;;;;;;;;21.10;74.70;;;;;;5012582;28;1894;-72
2022/07/10 13:54:18;;;;;;;;;;;21.10;74.70;;;;;;5012661;28;994;-72
2022/07/10 13:56:43;;;;;;;;;;;21.10;74.70;;;;;;5012723;28;1284;-72
2022/07/10 13:59:09;;;;;;;;;;;21.10;74.70;;;;;;5013425;28;819;-72
2022/07/10 14:01:34;;;;;;;;;;;21.10;74.70;;;;;;5016498;28;1259;-72
2022/07/10 14:04:03;;;;;;;;;;;21.10;74.70;;;;;;5016238;28;792;-72
2022/07/10 14:06:28;;;;;;;;;;;21.10;74.70;;;;;;5016152;28;1263;-72
2022/07/10 14:08:54;;;;;;;;;;;21.10;74.80;;;;;;5016359;28;930;-72
2022/07/10 14:11:19;;;;;;;;;;;21.10;74.70;;;;;;5016109;28;1890;-72
2022/07/10 14:13:45;;;;;;;;;;;21.10;74.70;;;;;;5016217;28;1065;-72
2022/07/10 14:16:10;;;;;;;;;;;21.10;74.70;;;;;;5015883;28;1283;-72
2022/07/10 14:18:40;;;;;;;;;;;21.10;74.70;;;;;;5014344;28;1181;-72
2022/07/10 14:21:08;;;;;;;;;;;21.10;74.70;;;;;;4996315;28;843;-72
2022/07/10 14:23:33;;;;;;;;;;;21.10;74.70;;;;;;4996505;28;891;-72
2022/07/10 14:25:59;;;;;;;;;;;21.10;74.70;;;;;;5006533;28;1287;-72
2022/07/10 14:28:24;;;;;;;;;;;21.10;74.70;;;;;;5016050;28;855;-72
2022/07/10 14:30:50;;;;;;;;;;;21.10;74.70;;;;;;5015888;28;1910;-72
2022/07/10 14:33:17;;;;;;;;;;;21.10;74.70;;;;;;5015926;28;863;-72
2022/07/10 14:35:42;;;;;;;;;;;21.10;74.70;;;;;;5014194;28;1221;-72
2022/07/10 14:38:07;;;;;;;;;;;21.10;74.70;;;;;;5015937;28;784;-73
2022/07/10 14:40:33;;;;;;;;;;;21.10;74.70;;;;;;5015728;28;939;-72